Prince Albert Glass Field
CYPA : now visible

Airfield :











YOU CAN JOIN US ON...

 
LOGIN :

Register | Disclaimer

   EN    FR    IT 

 









Legend :    VFR   Marginal VFR   IFR   Intensive IFR   Very Intensive IFR
Visi :
Ceiling :
>= 8 km
>= 3000ft
5 to 8 km
1000 to 3000 ft
1500m to 5 km
500 to 1000 ft
800 to 1500m
200 to 500 ft
< 800m
< 200 ft
Symbols :   Thunderstorms  Fog  Heavy snow  Heavy precipitations  Wind > 20 kt






- Airport Elevation : 1405 ft
- IATA code : YPA


CYPA - Prince Albert Glass Field

CURRENT METAR :
  • 042300Z 30010KT 15SM FEW048 FEW170 FEW250 26/14 A2992 RMK CU1AC1CI2 CU TR AC TR SLP134 DENSITY ALT 3000FT

EXPIRED METARs :
  • 042200Z 31010G19KT 15SM FEW044 FEW170 BKN250 26/15 A2992 RMK CU1AC1CI5 AC TR SLP135 DENSITY ALT 3000FT
  • 042100Z 31011G16KT 15SM FEW044 FEW170 BKN250 26/15 A2992 RMK CU1AC1CI5 AC TR SLP136 DENSITY ALT 3000FT

TAF TAF CYPA
Valid from the 04 at 19:00 until the 05 at 04:00 UTC


041838Z 0419/0504 24008KT P6SM BKN160 BKN240
BECMG 0419/0421 30012KT
FM042200 30012KT P6SM SCT060
TEMPO 0422/0504 BKN060 RMK NXT FCST BY 050100Z
CZWG FIR / North America



MET'MAP, your aeronautical weather chart ! - Copyright ORBIFLY December 2007 - Disclaimer

ORBIFLY MET'MAP TEAM :

Programming & Development : Alexandra Zaïnal
Concept & original design : Baudouin d'Aumeries
Assistance for programming : Marc-Olivier Méhu
Technical & hardware support : Manuel Goepfert

Contact : metmap@orbifly.com




SOURCES & CREDITS :

   NOAA       Earth
Advisory